Time;durP1;ratioP1;P1;durP2;ratioP2;P2;SDS_P1;SDS_P2;PMS_P1;PMS_P2;Temp;Humidity;BMP_temperature;BMP_pressure;BME280_temperature;BME280_humidity;BME280_pressure;Samples;Min_cycle;Max_cycle;Signal;HPM_P1;HPM_P2
2023/08/06 00:01:36;;;;;;;1.67;1.57;;;24.10;97.60;;;;;;4919419;29;20545;-86
2023/08/06 00:04:03;;;;;;;1.70;1.60;;;24.10;97.70;;;;;;4919215;29;20538;-92
2023/08/06 00:06:30;;;;;;;1.87;1.73;;;24.10;97.60;;;;;;4919025;29;20438;-91
2023/08/06 00:08:57;;;;;;;1.80;1.70;;;24.00;97.60;;;;;;4919187;29;20869;-86
2023/08/06 00:11:24;;;;;;;2.03;1.93;;;24.10;97.60;;;;;;4919363;29;20877;-92
2023/08/06 00:13:50;;;;;;;1.80;1.67;;;24.10;97.50;;;;;;4918412;29;20858;-96
2023/08/06 00:16:19;;;;;;;1.70;1.60;;;24.00;97.40;;;;;;4918349;29;20499;-89
2023/08/06 00:18:45;;;;;;;2.13;2.00;;;24.10;97.50;;;;;;4918480;29;20806;-85
2023/08/06 00:21:13;;;;;;;1.77;1.67;;;24.10;97.30;;;;;;4918435;29;20505;-86
2023/08/06 00:23:40;;;;;;;1.70;1.60;;;24.10;97.80;;;;;;4918298;29;20449;-87
2023/08/06 00:26:07;;;;;;;2.10;2.00;;;24.00;97.20;;;;;;4918379;29;20456;-88
2023/08/06 00:28:33;;;;;;;1.83;1.73;;;24.10;97.30;;;;;;4918339;29;20535;-87
2023/08/06 00:31:00;;;;;;;2.00;1.90;;;24.00;97.20;;;;;;4918169;29;20501;-86
2023/08/06 00:33:28;;;;;;;2.00;1.90;;;24.00;97.20;;;;;;4918704;29;20867;-89
2023/08/06 00:35:55;;;;;;;2.53;2.33;;;24.00;97.60;;;;;;4918658;29;20442;-88
2023/08/06 00:38:22;;;;;;;1.80;1.70;;;24.00;97.20;;;;;;4918608;29;20444;-92
2023/08/06 00:40:49;;;;;;;2.40;2.20;;;24.00;97.20;;;;;;4919207;29;20583;-90
2023/08/06 00:43:16;;;;;;;1.93;1.80;;;24.00;97.30;;;;;;4917772;29;20550;-92
2023/08/06 00:45:43;;;;;;;1.93;1.83;;;24.10;97.70;;;;;;4917981;29;20807;-91
2023/08/06 00:48:10;;;;;;;1.80;1.70;;;24.10;97.20;;;;;;4917848;29;20490;-92
2023/08/06 00:50:39;;;;;;;2.00;1.90;;;24.10;97.20;;;;;;4917031;29;20483;-92
2023/08/06 00:53:06;;;;;;;1.70;1.60;;;24.10;97.20;;;;;;4917611;29;20518;-92
2023/08/06 00:55:33;;;;;;;2.37;2.27;;;24.10;97.10;;;;;;4916968;29;20481;-92
2023/08/06 00:58:00;;;;;;;1.80;1.70;;;24.10;97.40;;;;;;4918352;29;20445;-91
2023/08/06 01:00:27;;;;;;;2.00;1.90;;;24.10;97.20;;;;;;4917276;29;20503;-92
2023/08/06 01:02:55;;;;;;;1.40;1.30;;;24.10;97.10;;;;;;4917248;29;20542;-91
2023/08/06 01:05:22;;;;;;;1.73;1.63;;;24.10;97.50;;;;;;4917124;29;20536;-90
2023/08/06 01:08:02;;;;;;;1.80;1.70;;;24.10;97.10;;;;;;4916853;29;20450;-92
2023/08/06 01:10:41;;;;;;;1.60;1.50;;;24.10;97.00;;;;;;4916997;29;20453;-93
2023/08/06 01:13:15;;;;;;;2.10;1.90;;;24.10;97.10;;;;;;4917124;29;20535;-90
2023/08/06 01:15:46;;;;;;;1.83;1.73;;;24.10;97.50;;;;;;4916669;29;20925;-91
2023/08/06 01:18:14;;;;;;;1.87;1.77;;;24.10;97.10;;;;;;4916579;29;20453;-93
2023/08/06 01:20:43;;;;;;;1.93;1.83;;;24.10;97.00;;;;;;4916796;29;20898;-90
2023/08/06 01:23:10;;;;;;;1.60;1.50;;;24.10;97.00;;;;;;4916694;29;20458;-89
2023/08/06 01:25:44;;;;;;;1.70;1.60;;;24.10;97.10;;;;;;4916956;29;20451;-90
2023/08/06 01:28:19;;;;;;;2.00;1.90;;;24.10;97.10;;;;;;4920723;29;20500;-90
2023/08/06 01:30:48;;;;;;;1.87;1.77;;;24.10;97.50;;;;;;4920477;29;20563;-89
2023/08/06 01:33:21;;;;;;;1.90;1.80;;;24.10;97.50;;;;;;4920339;29;20435;-90
2023/08/06 01:35:50;;;;;;;2.20;2.10;;;24.10;97.20;;;;;;4888928;29;20461;-89
2023/08/06 01:38:17;;;;;;;1.83;1.73;;;24.10;97.50;;;;;;4921015;29;20448;-90
2023/08/06 01:40:44;;;;;;;1.90;1.80;;;24.10;97.20;;;;;;4920494;29;20574;-90
2023/08/06 01:43:11;;;;;;;1.60;1.50;;;24.10;97.20;;;;;;4920521;29;20447;-91
2023/08/06 01:45:38;;;;;;;1.97;1.87;;;24.10;97.00;;;;;;4920643;29;20842;-91
2023/08/06 01:48:05;;;;;;;1.90;1.50;;;24.10;97.10;;;;;;4920154;29;20519;-90
2023/08/06 01:50:32;;;;;;;1.60;1.50;;;24.10;97.00;;;;;;4920029;29;20445;-91
2023/08/06 01:53:00;;;;;;;1.83;1.73;;;24.10;97.00;;;;;;4920548;29;20481;-91
2023/08/06 01:55:27;;;;;;;1.77;1.67;;;24.10;97.00;;;;;;4920878;29;20529;-92
2023/08/06 01:57:54;;;;;;;2.13;1.73;;;24.10;97.10;;;;;;4920924;29;20526;-93
2023/08/06 02:00:20;;;;;;;2.07;1.73;;;24.10;97.40;;;;;;4920742;29;20503;-91
2023/08/06 02:02:47;;;;;;;1.97;1.87;;;24.10;97.50;;;;;;4920787;29;20535;-93
2023/08/06 02:05:14;;;;;;;1.53;1.43;;;24.10;97.20;;;;;;4920736;29;20534;-93
2023/08/06 02:07:41;;;;;;;1.30;1.20;;;24.10;97.10;;;;;;4920830;29;20538;-93
2023/08/06 02:10:10;;;;;;;1.93;1.80;;;24.10;97.10;;;;;;4920742;29;20449;-91
2023/08/06 02:12:36;;;;;;;1.57;1.47;;;24.10;97.20;;;;;;4920678;29;20937;-92
2023/08/06 02:15:03;;;;;;;3.33;1.80;;;24.10;97.20;;;;;;4920817;29;20539;-92
2023/08/06 02:17:30;;;;;;;1.90;1.80;;;24.10;97.30;;;;;;4920883;29;20531;-92
2023/08/06 02:19:57;;;;;;;1.70;1.60;;;24.10;97.20;;;;;;4920601;29;20452;-93
2023/08/06 02:22:24;;;;;;;2.00;1.80;;;24.10;97.30;;;;;;4920495;29;20449;-91
2023/08/06 02:24:51;;;;;;;1.57;1.47;;;24.10;97.40;;;;;;4920626;29;20528;-92
2023/08/06 02:27:19;;;;;;;1.60;1.50;;;24.10;97.30;;;;;;4920476;29;20448;-93
2023/08/06 02:29:46;;;;;;;1.40;1.30;;;24.10;97.40;;;;;;4920358;29;20449;-89
2023/08/06 02:32:13;;;;;;;1.63;1.53;;;24.10;97.30;;;;;;4920296;29;20502;-91
2023/08/06 02:34:40;;;;;;;2.37;1.50;;;24.10;97.30;;;;;;4920195;29;20449;-90
2023/08/06 02:37:07;;;;;;;2.50;1.40;;;24.10;97.20;;;;;;4919964;29;20454;-91
2023/08/06 02:39:35;;;;;;;1.90;1.80;;;24.10;97.30;;;;;;4920266;29;20544;-91
2023/08/06 02:42:02;;;;;;;2.20;1.60;;;24.10;97.30;;;;;;4920485;29;20500;-91
2023/08/06 02:44:31;;;;;;;1.70;1.40;;;24.10;97.30;;;;;;4919967;29;20485;-91
2023/08/06 02:46:57;;;;;;;1.67;1.50;;;24.10;97.60;;;;;;4920023;29;20460;-90
2023/08/06 02:49:24;;;;;;;1.53;1.43;;;24.10;97.30;;;;;;4919802;29;20476;-90
2023/08/06 02:51:51;;;;;;;3.10;1.90;;;24.10;97.50;;;;;;4919959;29;20456;-89
2023/08/06 02:54:18;;;;;;;1.83;1.73;;;24.10;97.20;;;;;;4919649;29;20495;-90
2023/08/06 02:56:46;;;;;;;1.50;1.40;;;24.10;97.10;;;;;;4919849;29;20481;-91
2023/08/06 02:59:13;;;;;;;1.57;1.47;;;24.10;97.20;;;;;;4919737;29;20482;-92
2023/08/06 03:01:41;;;;;;;1.70;1.60;;;24.10;97.20;;;;;;4919367;29;20547;-92
2023/08/06 03:04:08;;;;;;;1.60;1.50;;;24.10;97.20;;;;;;4919576;29;20448;-89
2023/08/06 03:06:35;;;;;;;1.70;1.60;;;24.10;97.20;;;;;;4919615;29;20446;-91
2023/08/06 03:09:02;;;;;;;1.83;1.73;;;24.10;97.20;;;;;;4919436;29;20538;-90
2023/08/06 03:11:29;;;;;;;1.50;1.40;;;24.10;97.20;;;;;;4919792;29;20453;-89
2023/08/06 03:13:56;;;;;;;1.60;1.50;;;24.10;97.20;;;;;;4919456;29;20881;-89
2023/08/06 03:16:22;;;;;;;1.60;1.50;;;24.10;97.10;;;;;;4919211;29;20531;-90
2023/08/06 03:18:51;;;;;;;1.40;1.30;;;24.10;97.20;;;;;;4919624;29;20536;-89
2023/08/06 03:21:17;;;;;;;1.40;1.30;;;24.10;97.20;;;;;;4919227;29;20576;-89
2023/08/06 03:23:47;;;;;;;1.57;1.47;;;24.10;97.10;;;;;;4919295;29;20974;-89
2023/08/06 03:26:14;;;;;;;1.70;1.60;;;24.10;97.50;;;;;;4919081;29;20546;-90
2023/08/06 03:28:41;;;;;;;1.70;1.60;;;24.10;97.20;;;;;;4918812;29;20532;-89
2023/08/06 03:31:08;;;;;;;1.80;1.70;;;24.10;97.10;;;;;;4919018;29;20914;-91
2023/08/06 03:33:34;;;;;;;1.50;1.40;;;24.00;97.20;;;;;;4919272;29;20927;-90
2023/08/06 03:36:03;;;;;;;1.50;1.40;;;24.00;97.10;;;;;;4918887;29;20535;-90
2023/08/06 03:38:30;;;;;;;1.77;1.63;;;24.00;97.10;;;;;;4918773;29;20482;-90
2023/08/06 03:40:57;;;;;;;1.63;1.53;;;24.00;97.00;;;;;;4919004;29;21043;-90
2023/08/06 03:43:24;;;;;;;1.80;1.70;;;24.00;97.00;;;;;;4918657;29;20487;-89
2023/08/06 03:45:50;;;;;;;1.67;1.57;;;24.00;97.10;;;;;;4919046;29;20877;-91
2023/08/06 03:48:17;;;;;;;1.47;1.37;;;24.00;97.10;;;;;;4918347;29;20480;-94
2023/08/06 03:50:44;;;;;;;1.70;1.57;;;24.00;97.00;;;;;;4918830;29;20461;-92
2023/08/06 03:53:12;;;;;;;1.93;1.83;;;24.00;97.00;;;;;;4918978;29;20448;-91
2023/08/06 03:55:39;;;;;;;1.80;1.70;;;24.00;97.00;;;;;;4918716;29;20802;-91
2023/08/06 03:58:06;;;;;;;1.70;1.60;;;24.00;96.90;;;;;;4918964;29;20443;-93
2023/08/06 04:00:33;;;;;;;1.30;1.20;;;24.00;96.90;;;;;;4918533;29;20546;-92
2023/08/06 04:03:00;;;;;;;1.60;1.50;;;24.00;96.90;;;;;;4918906;29;20450;-90
2023/08/06 04:05:27;;;;;;;1.67;1.57;;;24.00;96.90;;;;;;4918633;29;20448;-90
2023/08/06 04:07:54;;;;;;;1.93;1.70;;;24.00;96.90;;;;;;4918527;29;21003;-93
2023/08/06 04:10:22;;;;;;;1.53;1.43;;;24.00;96.90;;;;;;4918702;29;20988;-93
2023/08/06 04:12:49;;;;;;;1.43;1.33;;;24.00;96.90;;;;;;4918775;29;21193;-91
2023/08/06 04:15:16;;;;;;;1.43;1.30;;;24.00;96.90;;;;;;4918787;29;20444;-93
2023/08/06 04:17:42;;;;;;;1.90;1.57;;;24.00;96.90;;;;;;4918837;29;20533;-94
2023/08/06 04:20:10;;;;;;;1.30;1.20;;;24.00;96.90;;;;;;4918654;29;20536;-93
2023/08/06 04:22:36;;;;;;;1.50;1.40;;;24.00;96.90;;;;;;4918676;29;20503;-94
2023/08/06 04:25:04;;;;;;;1.40;1.30;;;24.00;97.00;;;;;;4918389;29;20964;-94
2023/08/06 04:27:32;;;;;;;1.60;1.50;;;24.00;96.90;;;;;;4918911;29;20983;-92
2023/08/06 04:29:59;;;;;;;1.70;1.40;;;24.00;96.90;;;;;;4918586;29;20467;-93
2023/08/06 04:32:26;;;;;;;1.30;1.20;;;24.00;96.90;;;;;;4918709;29;20439;-93
2023/08/06 04:34:53;;;;;;;1.20;1.10;;;24.00;96.90;;;;;;4918399;29;20526;-95
2023/08/06 04:37:19;;;;;;;1.33;1.23;;;24.00;96.90;;;;;;4918215;29;20529;-93
2023/08/06 04:39:46;;;;;;;1.43;1.33;;;24.00;96.90;;;;;;4918256;29;20460;-90
2023/08/06 04:42:13;;;;;;;1.77;1.67;;;24.00;96.90;;;;;;4917873;29;20579;-93
2023/08/06 04:44:41;;;;;;;1.60;1.50;;;24.00;97.30;;;;;;4917977;29;20566;-93
2023/08/06 04:47:08;;;;;;;1.60;1.50;;;24.00;96.90;;;;;;4918224;29;20454;-91
2023/08/06 04:49:35;;;;;;;1.80;1.60;;;24.00;96.90;;;;;;4918274;29;20476;-93
2023/08/06 04:52:02;;;;;;;1.60;1.50;;;24.00;96.80;;;;;;4918081;29;20452;-92
2023/08/06 04:54:29;;;;;;;1.40;1.30;;;24.00;96.80;;;;;;4917690;29;20448;-91
2023/08/06 04:56:56;;;;;;;1.50;1.40;;;24.00;96.90;;;;;;4917632;29;20473;-92
2023/08/06 04:59:22;;;;;;;1.90;1.80;;;24.00;96.80;;;;;;4917743;29;20539;-91
2023/08/06 05:01:51;;;;;;;1.50;1.40;;;24.00;96.80;;;;;;4917432;29;20509;-89
2023/08/06 05:04:18;;;;;;;1.30;1.20;;;24.00;96.80;;;;;;4900891;29;20444;-94
2023/08/06 05:06:44;;;;;;;1.50;1.40;;;24.00;96.80;;;;;;4917625;29;20480;-91
2023/08/06 05:09:11;;;;;;;1.57;1.47;;;24.00;96.80;;;;;;4917612;29;20541;-90
2023/08/06 05:11:38;;;;;;;1.70;1.60;;;24.00;96.80;;;;;;4917441;29;20448;-89
2023/08/06 05:14:05;;;;;;;1.40;1.20;;;24.00;96.80;;;;;;4917518;29;20531;-90
2023/08/06 05:16:32;;;;;;;1.70;1.60;;;24.00;96.80;;;;;;4917548;29;20547;-90
2023/08/06 05:19:00;;;;;;;1.33;1.23;;;23.90;96.70;;;;;;4917299;29;20535;-90
2023/08/06 05:21:27;;;;;;;1.77;1.67;;;24.00;97.10;;;;;;4917358;29;20566;-90
2023/08/06 05:23:54;;;;;;;1.40;1.30;;;24.00;96.80;;;;;;4917264;29;20483;-90
2023/08/06 05:26:20;;;;;;;1.50;1.40;;;24.00;96.80;;;;;;4917613;29;20449;-90
2023/08/06 05:28:47;;;;;;;1.37;1.27;;;24.00;96.70;;;;;;4917089;29;20882;-90
2023/08/06 05:31:14;;;;;;;1.60;1.50;;;24.00;97.10;;;;;;4917174;29;20499;-90
2023/08/06 05:33:41;;;;;;;1.50;1.40;;;24.00;96.70;;;;;;4917438;29;20884;-90
2023/08/06 05:36:09;;;;;;;1.40;1.30;;;24.00;96.70;;;;;;4917363;29;20534;-90
2023/08/06 05:38:36;;;;;;;1.33;1.23;;;24.00;96.70;;;;;;4917077;29;20446;-91
2023/08/06 05:41:03;;;;;;;1.93;1.40;;;24.00;96.70;;;;;;4917091;29;20527;-90
2023/08/06 05:43:30;;;;;;;1.63;1.10;;;24.00;97.10;;;;;;4917234;29;20479;-92
2023/08/06 05:45:57;;;;;;;1.43;1.33;;;24.00;96.80;;;;;;4917726;29;20456;-93
2023/08/06 05:48:24;;;;;;;1.73;1.47;;;24.00;96.70;;;;;;4917709;29;20446;-91
2023/08/06 05:50:52;;;;;;;1.50;1.40;;;24.00;96.80;;;;;;4917332;29;20936;-93
2023/08/06 05:53:20;;;;;;;1.30;1.20;;;24.00;96.80;;;;;;4917349;29;20490;-93
2023/08/06 05:55:48;;;;;;;1.33;1.23;;;24.00;97.10;;;;;;4917502;29;20531;-94
2023/08/06 05:58:15;;;;;;;1.33;1.23;;;24.00;96.70;;;;;;4917405;29;20884;-90
2023/08/06 06:00:42;;;;;;;1.57;1.47;;;24.00;96.80;;;;;;4917143;29;20976;-91
2023/08/06 06:03:09;;;;;;;1.57;1.47;;;24.00;96.70;;;;;;4917365;29;21056;-93
2023/08/06 06:05:38;;;;;;;1.30;1.17;;;24.00;96.80;;;;;;4917470;29;20867;-92
2023/08/06 06:08:05;;;;;;;1.63;1.53;;;24.10;96.80;;;;;;4917054;29;20475;-91
2023/08/06 06:10:33;;;;;;;1.20;1.10;;;24.10;96.80;;;;;;4916858;29;20480;-90
2023/08/06 06:13:00;;;;;;;1.50;1.20;;;24.10;96.80;;;;;;4919262;29;20477;-90
2023/08/06 06:15:27;;;;;;;1.60;1.50;;;24.10;96.80;;;;;;4920824;29;20866;-90
2023/08/06 06:17:54;;;;;;;1.57;1.47;;;24.10;96.80;;;;;;4920239;29;20479;-90
2023/08/06 06:20:20;;;;;;;1.30;1.20;;;24.10;96.80;;;;;;4920232;29;20446;-90
2023/08/06 06:22:47;;;;;;;1.50;1.40;;;24.10;96.90;;;;;;4919819;29;20504;-90
2023/08/06 06:25:14;;;;;;;1.43;1.33;;;24.10;96.90;;;;;;4920176;29;20452;-90
2023/08/06 06:27:42;;;;;;;1.47;1.37;;;24.10;97.20;;;;;;4920128;29;20490;-90
2023/08/06 06:30:11;;;;;;;1.50;1.33;;;24.10;96.70;;;;;;4919958;29;20523;-90
2023/08/06 06:32:39;;;;;;;1.20;1.10;;;24.10;96.80;;;;;;4920181;29;20444;-90
2023/08/06 06:35:07;;;;;;;1.60;1.50;;;24.10;96.90;;;;;;4919819;29;20943;-90
2023/08/06 06:37:34;;;;;;;1.30;1.20;;;24.10;96.80;;;;;;4920066;29;20444;-93
2023/08/06 06:40:00;;;;;;;1.33;1.23;;;24.10;96.80;;;;;;4920154;29;20445;-91
2023/08/06 06:42:27;;;;;;;1.40;1.30;;;24.10;96.80;;;;;;4919930;29;20489;-91
2023/08/06 06:44:56;;;;;;;1.57;1.47;;;24.10;96.80;;;;;;4919603;29;20551;-91
2023/08/06 06:47:22;;;;;;;1.40;1.10;;;24.10;96.80;;;;;;4920077;29;20467;-90
2023/08/06 06:49:49;;;;;;;1.50;1.27;;;24.10;96.80;;;;;;4919734;29;20447;-90
2023/08/06 06:52:16;;;;;;;1.63;1.53;;;24.10;96.80;;;;;;4919981;29;20452;-90
2023/08/06 06:54:43;;;;;;;1.60;1.50;;;24.10;96.80;;;;;;4919636;29;20449;-93
2023/08/06 06:57:10;;;;;;;1.30;1.20;;;24.10;97.20;;;;;;4919803;29;20451;-90
2023/08/06 06:59:38;;;;;;;1.27;1.17;;;24.10;96.80;;;;;;4920614;29;20465;-90
2023/08/06 07:02:06;;;;;;;1.30;1.20;;;24.20;96.80;;;;;;4920345;29;21009;-89
2023/08/06 07:04:33;;;;;;;1.20;1.00;;;24.20;96.90;;;;;;4919692;29;20544;-92
2023/08/06 07:07:00;;;;;;;1.33;1.23;;;24.20;96.90;;;;;;4919674;29;20455;-93
2023/08/06 07:09:27;;;;;;;2.40;1.10;;;24.20;96.90;;;;;;4919674;29;20862;-90
2023/08/06 07:11:54;;;;;;;1.37;1.27;;;24.20;96.90;;;;;;4919506;29;20536;-92
2023/08/06 07:14:21;;;;;;;1.30;1.20;;;24.20;96.80;;;;;;4919668;29;20951;-92
2023/08/06 07:16:47;;;;;;;1.67;1.57;;;24.20;97.00;;;;;;4919578;29;20447;-87
2023/08/06 07:19:15;;;;;;;2.60;1.57;;;24.20;96.90;;;;;;4921182;29;20439;-87
2023/08/06 07:21:42;;;;;;;1.60;1.20;;;24.20;97.00;;;;;;4917623;29;20524;-84
2023/08/06 07:24:09;;;;;;;1.47;1.37;;;24.20;97.00;;;;;;4917671;29;20457;-85
2023/08/06 07:26:36;;;;;;;3.83;1.87;;;24.20;97.10;;;;;;4918977;29;20547;-87
2023/08/06 07:29:03;;;;;;;10.63;1.40;;;24.20;97.10;;;;;;4919150;29;20444;-89
2023/08/06 07:31:30;;;;;;;2.53;1.70;;;24.20;97.20;;;;;;4919076;29;20916;-87
2023/08/06 07:33:57;;;;;;;3.47;1.20;;;24.20;97.20;;;;;;4919236;29;20516;-89
2023/08/06 07:36:25;;;;;;;1.47;1.37;;;24.20;97.10;;;;;;4916746;29;20460;-90
2023/08/06 07:38:55;;;;;;;1.30;1.20;;;24.20;97.20;;;;;;4916650;29;20455;-87
2023/08/06 07:41:22;;;;;;;3.03;1.70;;;24.20;97.20;;;;;;4916562;29;20961;-87
2023/08/06 07:43:49;;;;;;;1.50;1.30;;;24.20;97.20;;;;;;4916612;29;20503;-86
2023/08/06 07:46:16;;;;;;;1.40;1.30;;;24.20;97.20;;;;;;4916940;29;20954;-90
2023/08/06 07:48:43;;;;;;;2.80;1.20;;;24.20;97.30;;;;;;4916723;29;20449;-87
2023/08/06 07:51:10;;;;;;;3.33;1.60;;;24.20;97.40;;;;;;4916731;29;20799;-87
2023/08/06 07:53:39;;;;;;;1.27;1.17;;;24.20;97.20;;;;;;4917848;29;20472;-89
2023/08/06 07:56:05;;;;;;;1.50;1.30;;;24.20;97.20;;;;;;4918362;29;20542;-88
2023/08/06 07:58:32;;;;;;;1.33;1.17;;;24.10;97.20;;;;;;4918376;29;21004;-88
2023/08/06 08:00:59;;;;;;;1.47;1.37;;;24.10;97.20;;;;;;4918313;29;20465;-87
2023/08/06 08:03:26;;;;;;;3.83;1.47;;;24.10;97.30;;;;;;4918133;29;21050;-89
2023/08/06 08:05:57;;;;;;;1.27;1.17;;;24.10;97.30;;;;;;4918327;29;20536;-86
2023/08/06 08:08:24;;;;;;;1.80;1.50;;;24.10;97.30;;;;;;4917947;29;20455;-87
2023/08/06 08:10:52;;;;;;;1.37;1.27;;;24.10;97.20;;;;;;4918519;29;20441;-87
2023/08/06 08:13:19;;;;;;;2.53;1.43;;;24.10;97.20;;;;;;4918295;29;20538;-90
2023/08/06 08:15:46;;;;;;;1.80;1.70;;;24.10;97.20;;;;;;4918002;29;20463;-90
2023/08/06 08:18:12;;;;;;;1.60;1.50;;;24.10;97.30;;;;;;4917575;29;20531;-88
2023/08/06 08:20:39;;;;;;;1.40;1.30;;;24.10;97.10;;;;;;4918050;29;20456;-88
2023/08/06 08:23:06;;;;;;;1.43;1.23;;;24.10;97.20;;;;;;4917874;29;20497;-88
2023/08/06 08:25:35;;;;;;;6.10;1.33;;;24.10;97.20;;;;;;4923062;29;20446;-90
2023/08/06 08:28:03;;;;;;;1.40;1.20;;;24.10;97.10;;;;;;4920697;29;20445;-92
2023/08/06 08:30:32;;;;;;;3.53;1.40;;;24.10;97.10;;;;;;4937221;29;20470;-92
2023/08/06 08:33:04;;;;;;;3.00;1.33;;;24.20;97.20;;;;;;4939361;29;20425;-91
2023/08/06 08:35:35;;;;;;;2.27;1.30;;;24.20;97.20;;;;;;4932805;29;20473;-92
2023/08/06 08:40:51;;;;;;;2.73;1.60;;;24.20;97.10;;;;;;4932541;29;20459;-92
2023/08/06 08:43:43;;;;;;;2.13;1.43;;;24.20;97.10;;;;;;4933799;29;20797;-92
2023/08/06 08:46:14;;;;;;;1.70;1.60;;;24.20;97.10;;;;;;4933149;29;20536;-91
2023/08/06 08:48:41;;;;;;;1.50;1.40;;;24.20;97.10;;;;;;4928215;29;20833;-91
2023/08/06 08:51:11;;;;;;;2.43;1.37;;;24.20;97.10;;;;;;4927777;29;20516;-92
2023/08/06 08:53:55;;;;;;;1.70;1.57;;;24.20;97.20;;;;;;4925486;29;20531;-92
2023/08/06 08:56:24;;;;;;;1.57;1.47;;;24.20;97.30;;;;;;4924110;29;20450;-91
2023/08/06 08:58:53;;;;;;;1.43;1.33;;;24.20;97.20;;;;;;4923561;29;20463;-91
2023/08/06 09:01:21;;;;;;;2.10;1.60;;;24.20;97.60;;;;;;4923686;29;20472;-91
2023/08/06 09:03:48;;;;;;;2.40;1.60;;;24.20;97.20;;;;;;4925318;29;20516;-91
2023/08/06 09:06:18;;;;;;;2.70;1.43;;;24.20;97.10;;;;;;4924783;29;20459;-92
2023/08/06 09:09:02;;;;;;;2.67;1.57;;;24.30;97.20;;;;;;4923222;29;20456;-91
2023/08/06 09:11:39;;;;;;;1.30;1.20;;;24.30;97.30;;;;;;4924748;29;20491;-92
2023/08/06 09:14:09;;;;;;;1.60;1.50;;;24.20;97.20;;;;;;4924083;29;20458;-91
2023/08/06 09:16:39;;;;;;;1.80;1.70;;;24.30;97.40;;;;;;4923159;29;20453;-91
2023/08/06 09:19:12;;;;;;;1.97;1.40;;;24.20;97.40;;;;;;4922101;29;20437;-91
2023/08/06 09:21:39;;;;;;;1.30;1.20;;;24.30;97.40;;;;;;4924498;29;20543;-91
2023/08/06 09:24:10;;;;;;;1.20;1.00;;;24.40;97.40;;;;;;4924276;29;20506;-92
2023/08/06 09:26:40;;;;;;;1.60;1.00;;;24.30;97.50;;;;;;4925440;29;20779;-92
2023/08/06 09:29:12;;;;;;;1.70;1.33;;;24.20;97.40;;;;;;4926519;29;20469;-92
2023/08/06 09:31:42;;;;;;;1.80;1.60;;;24.20;97.40;;;;;;4924026;29;20508;-92
2023/08/06 09:34:16;;;;;;;2.10;1.40;;;24.30;97.50;;;;;;4924899;29;20444;-92
2023/08/06 09:36:43;;;;;;;2.00;1.43;;;24.30;97.60;;;;;;4922660;29;20434;-91
2023/08/06 09:39:18;;;;;;;1.80;1.50;;;24.30;97.60;;;;;;4922710;29;20452;-91
2023/08/06 09:41:49;;;;;;;1.40;1.30;;;24.30;97.60;;;;;;4921157;29;20850;-92
2023/08/06 09:44:19;;;;;;;1.43;1.30;;;24.30;97.50;;;;;;4923113;29;20862;-91
2023/08/06 09:46:55;;;;;;;1.50;1.40;;;24.30;97.50;;;;;;4923871;29;20451;-91
2023/08/06 09:49:28;;;;;;;2.03;1.10;;;24.30;97.30;;;;;;4925378;29;20440;-91
2023/08/06 09:52:00;;;;;;;1.37;1.27;;;24.30;97.30;;;;;;4929969;29;20451;-91
2023/08/06 09:54:30;;;;;;;1.20;1.07;;;24.30;97.30;;;;;;4950519;23;20502;-92
2023/08/06 09:57:06;;;;;;;1.40;1.30;;;24.30;97.20;;;;;;4973567;28;20521;-92
2023/08/06 09:59:35;;;;;;;1.30;1.20;;;24.30;97.10;;;;;;4989076;28;20463;-91
2023/08/06 10:02:03;;;;;;;1.50;1.40;;;24.40;97.30;;;;;;4969864;29;20525;-92
2023/08/06 10:04:31;;;;;;;1.87;1.30;;;24.40;97.20;;;;;;4970205;29;20489;-92
2023/08/06 10:07:05;;;;;;;1.27;1.10;;;24.40;97.20;;;;;;4969152;28;20449;-92
2023/08/06 10:09:32;;;;;;;1.47;1.20;;;24.40;97.30;;;;;;4968873;29;20450;-91
2023/08/06 10:12:00;;;;;;;1.30;1.20;;;24.30;97.20;;;;;;4968298;28;20462;-92
2023/08/06 10:14:34;;;;;;;1.40;1.30;;;24.40;97.30;;;;;;4969657;29;20487;-92
2023/08/06 10:17:06;;;;;;;1.70;1.50;;;24.40;97.70;;;;;;4971366;29;20457;-91
2023/08/06 10:19:36;;;;;;;2.00;1.80;;;24.40;97.50;;;;;;4972564;28;20442;-92
2023/08/06 10:22:11;;;;;;;1.50;1.40;;;24.40;97.50;;;;;;4980043;23;20444;-91
2023/08/06 10:24:55;;;;;;;1.40;1.30;;;24.40;97.50;;;;;;4950235;29;20826;-91
2023/08/06 10:27:33;;;;;;;1.60;1.10;;;24.40;97.60;;;;;;4951145;29;20468;-92
2023/08/06 10:30:23;;;;;;;1.40;1.27;;;24.40;97.60;;;;;;4950417;29;20476;-92
2023/08/06 10:32:54;;;;;;;1.50;1.10;;;24.40;97.60;;;;;;4945733;29;20474;-92
2023/08/06 10:35:36;;;;;;;3.90;1.40;;;24.40;97.50;;;;;;4930603;29;20449;-91
2023/08/06 10:38:08;;;;;;;1.50;1.30;;;24.40;97.60;;;;;;4947535;29;21001;-92
2023/08/06 10:40:36;;;;;;;1.47;1.20;;;24.40;97.50;;;;;;4945399;29;20496;-92
2023/08/06 10:43:06;;;;;;;1.50;1.40;;;24.40;97.40;;;;;;4945642;29;20476;-92
2023/08/06 10:45:36;;;;;;;1.73;1.63;;;24.50;97.80;;;;;;4946807;29;20441;-92
2023/08/06 10:48:04;;;;;;;1.60;1.50;;;24.50;97.50;;;;;;4945803;29;20801;-92
2023/08/06 10:50:34;;;;;;;1.33;1.20;;;24.50;97.50;;;;;;4945391;29;20806;-92
2023/08/06 10:53:06;;;;;;;2.43;1.50;;;24.50;97.50;;;;;;4948028;29;20460;-92
2023/08/06 10:55:38;;;;;;;2.00;1.50;;;24.50;97.60;;;;;;4927828;29;20484;-92
2023/08/06 10:58:05;;;;;;;1.10;1.00;;;24.60;97.60;;;;;;4945194;29;20451;-92
2023/08/06 11:00:34;;;;;;;1.13;1.03;;;24.50;97.60;;;;;;4944984;29;20491;-92
2023/08/06 11:03:01;;;;;;;1.77;1.30;;;24.50;97.60;;;;;;4955877;29;20483;-92
2023/08/06 11:05:31;;;;;;;1.30;1.20;;;24.50;97.60;;;;;;4953818;29;20451;-92
2023/08/06 11:07:58;;;;;;;1.40;1.30;;;24.50;97.50;;;;;;4954186;29;20445;-92
2023/08/06 11:10:27;;;;;;;1.40;1.30;;;24.50;97.50;;;;;;4951823;29;20444;-92
2023/08/06 11:12:54;;;;;;;1.77;1.33;;;24.50;97.50;;;;;;4952388;29;20457;-92
2023/08/06 11:15:23;;;;;;;3.17;1.23;;;24.50;97.60;;;;;;4950895;29;20451;-92
2023/08/06 11:17:52;;;;;;;1.60;1.50;;;24.60;97.50;;;;;;4934110;29;20459;-92
2023/08/06 11:20:22;;;;;;;2.70;1.20;;;24.50;97.40;;;;;;4946217;29;20472;-91
2023/08/06 11:22:52;;;;;;;1.30;1.20;;;24.60;97.50;;;;;;4947478;29;20485;-92
2023/08/06 11:25:25;;;;;;;1.47;1.30;;;24.60;97.50;;;;;;4951985;29;20529;-92
2023/08/06 11:27:54;;;;;;;1.27;1.17;;;24.60;97.40;;;;;;4946526;29;20428;-91
2023/08/06 11:30:24;;;;;;;1.50;1.33;;;24.60;97.50;;;;;;4949941;29;20531;-92
2023/08/06 11:32:53;;;;;;;3.23;1.40;;;24.60;97.50;;;;;;4950624;29;20441;-92
2023/08/06 11:35:21;;;;;;;1.20;1.10;;;24.60;97.40;;;;;;4950140;29;20452;-92
2023/08/06 11:37:49;;;;;;;1.20;1.10;;;24.60;97.30;;;;;;4948750;29;20484;-92
2023/08/06 11:40:34;;;;;;;2.33;1.23;;;24.60;97.30;;;;;;4947776;29;20445;-92
2023/08/06 11:43:03;;;;;;;1.30;1.20;;;24.60;97.30;;;;;;4944867;29;20456;-92
2023/08/06 11:45:30;;;;;;;2.60;1.40;;;24.60;97.30;;;;;;4946719;29;21012;-92
2023/08/06 11:47:59;;;;;;;1.50;1.33;;;24.60;97.30;;;;;;4948487;29;20450;-92
2023/08/06 11:50:28;;;;;;;1.50;1.40;;;24.60;97.30;;;;;;4945227;29;20463;-92
2023/08/06 11:53:01;;;;;;;1.30;1.20;;;24.50;97.40;;;;;;4944240;29;20503;-92
2023/08/06 11:55:30;;;;;;;1.60;1.50;;;24.60;97.40;;;;;;4943397;29;20454;-93
2023/08/06 11:57:59;;;;;;;1.40;1.30;;;24.60;97.40;;;;;;4950155;29;20473;-92
2023/08/06 12:00:38;;;;;;;2.73;1.30;;;24.60;97.40;;;;;;4954115;29;20546;-92
2023/08/06 12:03:09;;;;;;;1.33;1.20;;;24.60;97.30;;;;;;4937091;29;20509;-91
2023/08/06 12:05:38;;;;;;;1.50;1.20;;;24.50;97.40;;;;;;4952427;29;20788;-92
2023/08/06 12:08:10;;;;;;;1.43;1.33;;;24.50;97.40;;;;;;4953285;29;20920;-92
2023/08/06 12:10:38;;;;;;;1.40;1.20;;;24.50;97.40;;;;;;4950987;29;20474;-91
2023/08/06 12:13:12;;;;;;;1.30;1.20;;;24.50;97.40;;;;;;4950521;29;20467;-91
2023/08/06 12:15:39;;;;;;;1.40;1.30;;;24.50;97.70;;;;;;4950253;29;20474;-92
2023/08/06 12:18:09;;;;;;;1.37;1.27;;;24.50;97.40;;;;;;4950907;29;20441;-92
2023/08/06 12:20:39;;;;;;;1.60;1.50;;;24.50;97.30;;;;;;4951241;29;20437;-92
2023/08/06 12:23:06;;;;;;;1.60;1.50;;;24.50;97.30;;;;;;4951499;29;20510;-92
2023/08/06 12:25:34;;;;;;;1.30;1.20;;;24.50;97.40;;;;;;4953745;29;20479;-92
2023/08/06 12:28:07;;;;;;;1.40;1.30;;;24.50;97.40;;;;;;4951524;29;20485;-91
2023/08/06 12:30:44;;;;;;;1.40;1.20;;;24.50;97.40;;;;;;4952415;29;20533;-91
2023/08/06 12:33:11;;;;;;;1.37;1.27;;;24.50;97.30;;;;;;5013721;23;21054;-91
2023/08/06 12:35:40;;;;;;;1.20;1.10;;;24.50;97.30;;;;;;4988952;23;20489;-92
2023/08/06 12:38:09;;;;;;;1.70;1.50;;;24.70;97.50;;;;;;5063632;23;20492;-92
2023/08/06 12:40:39;;;;;;;1.87;1.60;;;24.50;97.40;;;;;;4973375;29;20444;-92
2023/08/06 12:43:06;;;;;;;1.30;1.20;;;24.50;97.50;;;;;;4971705;29;20432;-92
2023/08/06 12:45:33;;;;;;;1.40;1.30;;;24.50;97.50;;;;;;4971314;29;20514;-92
2023/08/06 12:48:05;;;;;;;1.23;1.13;;;24.50;97.50;;;;;;4969938;29;20479;-91
2023/08/06 12:50:33;;;;;;;1.40;1.30;;;24.50;97.50;;;;;;4965505;29;20484;-92
2023/08/06 12:53:01;;;;;;;1.60;1.40;;;24.50;97.40;;;;;;4964832;29;20510;-92
2023/08/06 12:55:28;;;;;;;1.47;1.37;;;24.50;97.40;;;;;;4965314;29;20510;-92
2023/08/06 12:57:56;;;;;;;1.33;1.23;;;24.50;97.40;;;;;;4968272;29;20467;-92